createdAt,value
2023-01-28T00:00:42.497Z,1022.08
2023-01-28T00:02:42.826Z,1022.08
2023-01-28T00:04:42.524Z,1022.08
2023-01-28T00:06:42.485Z,1022.00
2023-01-28T00:08:42.437Z,1021.97
2023-01-28T00:10:42.486Z,1021.97
2023-01-28T00:12:42.589Z,1021.98
2023-01-28T00:14:42.545Z,1021.98
2023-01-28T00:16:42.463Z,1021.96
2023-01-28T00:18:42.449Z,1021.96
2023-01-28T00:20:42.443Z,1021.99
2023-01-28T00:22:42.481Z,1021.99
2023-01-28T00:24:42.470Z,1021.99
2023-01-28T00:26:42.538Z,1022.04
2023-01-28T00:28:42.594Z,1022.06
2023-01-28T00:30:42.543Z,1022.07
2023-01-28T00:32:43.559Z,1022.07
2023-01-28T00:34:42.495Z,1022.08
2023-01-28T00:36:42.508Z,1022.07
2023-01-28T00:38:42.505Z,1022.04
2023-01-28T00:40:42.471Z,1022.07
2023-01-28T00:42:42.500Z,1022.07
2023-01-28T00:44:42.483Z,1022.01
2023-01-28T00:46:42.615Z,1021.98
2023-01-28T00:50:42.440Z,1021.94
2023-01-28T00:52:42.530Z,1021.94
2023-01-28T00:56:57.967Z,1021.93
2023-01-28T00:58:57.916Z,1021.93
2023-01-28T01:00:57.891Z,1021.94
2023-01-28T01:02:57.923Z,1021.94
2023-01-28T01:04:57.905Z,1021.94
2023-01-28T01:06:57.941Z,1021.93
2023-01-28T01:08:57.989Z,1021.93
2023-01-28T01:10:57.924Z,1021.93
2023-01-28T01:12:57.959Z,1021.93
2023-01-28T01:14:58.011Z,1022.01
2023-01-28T01:16:57.906Z,1021.99
2023-01-28T01:18:57.940Z,1022.03
2023-01-28T01:20:57.931Z,1022.03
2023-01-28T01:22:57.911Z,1022.00
2023-01-28T01:24:57.906Z,1022.04
2023-01-28T01:26:57.956Z,1022.09
2023-01-28T01:28:57.977Z,1022.10
2023-01-28T01:30:57.971Z,1022.10
2023-01-28T01:32:58.033Z,1022.14
2023-01-28T01:34:57.971Z,1022.18
2023-01-28T01:36:57.971Z,1022.18
2023-01-28T01:38:57.961Z,1022.18
2023-01-28T01:40:57.957Z,1022.18
2023-01-28T01:42:57.939Z,1022.22
2023-01-28T01:44:57.980Z,1022.22
2023-01-28T01:46:58.008Z,1022.24
2023-01-28T01:48:57.940Z,1022.24
2023-01-28T01:50:57.962Z,1022.27
2023-01-28T01:52:57.964Z,1022.26
2023-01-28T01:54:57.947Z,1022.31
2023-01-28T01:56:57.952Z,1022.38
2023-01-28T01:58:58.059Z,1022.38
2023-01-28T02:00:57.937Z,1022.35
2023-01-28T02:02:58.085Z,1022.37
2023-01-28T02:04:58.087Z,1022.37
2023-01-28T02:06:58.002Z,1022.37
2023-01-28T02:08:57.938Z,1022.36
2023-01-28T02:10:57.972Z,1022.35
2023-01-28T02:12:57.942Z,1022.33
2023-01-28T02:14:58.014Z,1022.33
2023-01-28T02:16:58.017Z,1022.33
2023-01-28T02:18:57.986Z,1022.29
2023-01-28T02:20:57.964Z,1022.33
2023-01-28T02:22:57.935Z,1022.35
2023-01-28T02:24:58.012Z,1022.35
2023-01-28T02:27:27.975Z,1022.34
2023-01-28T02:29:28.046Z,1022.36
2023-01-28T02:31:28.094Z,1022.36
2023-01-28T02:33:27.944Z,1022.33
2023-01-28T02:35:27.997Z,1022.35
2023-01-28T02:37:27.977Z,1022.32
2023-01-28T02:39:27.981Z,1022.32
2023-01-28T02:41:27.979Z,1022.27
2023-01-28T02:43:27.958Z,1022.33
2023-01-28T02:45:27.959Z,1022.34
2023-01-28T02:47:27.978Z,1022.32
2023-01-28T02:49:28.083Z,1022.32
2023-01-28T02:51:27.953Z,1022.31
2023-01-28T02:53:27.956Z,1022.36
2023-01-28T02:55:27.971Z,1022.34
2023-01-28T02:57:27.973Z,1022.29
2023-01-28T02:59:27.983Z,1022.29
2023-01-28T03:01:28.027Z,1022.25
2023-01-28T03:03:27.986Z,1022.27
2023-01-28T03:05:27.959Z,1022.27
2023-01-28T03:07:28.001Z,1022.27
2023-01-28T03:09:27.998Z,1022.30
2023-01-28T03:11:27.982Z,1022.33
2023-01-28T03:13:27.987Z,1022.31
2023-01-28T03:15:27.999Z,1022.34
2023-01-28T03:17:28.082Z,1022.34
2023-01-28T03:19:27.983Z,1022.34
2023-01-28T03:21:28.011Z,1022.39
2023-01-28T03:23:28.011Z,1022.34
2023-01-28T03:25:28.047Z,1022.34
2023-01-28T03:27:28.053Z,1022.34
2023-01-28T03:29:28.055Z,1022.33
2023-01-28T03:31:28.065Z,1022.33
2023-01-28T03:33:27.972Z,1022.33
2023-01-28T03:35:27.986Z,1022.33
2023-01-28T03:37:28.032Z,1022.33
2023-01-28T03:39:28.057Z,1022.36
2023-01-28T03:41:27.990Z,1022.36
2023-01-28T03:43:27.992Z,1022.37
2023-01-28T03:45:27.959Z,1022.37
2023-01-28T03:47:27.976Z,1022.37
2023-01-28T03:49:27.981Z,1022.45
2023-01-28T03:51:27.999Z,1022.44
2023-01-28T03:53:27.983Z,1022.48
2023-01-28T03:55:28.001Z,1022.48
2023-01-28T03:57:28.102Z,1022.53
2023-01-28T03:59:28.112Z,1022.58
2023-01-28T04:01:28.140Z,1022.50
2023-01-28T04:03:27.977Z,1022.53
2023-01-28T04:05:28.031Z,1022.53
2023-01-28T04:07:28.012Z,1022.52
2023-01-28T04:09:58.042Z,1022.56
2023-01-28T04:11:58.069Z,1022.53
2023-01-28T04:13:58.027Z,1022.53
2023-01-28T04:15:58.055Z,1022.57
2023-01-28T04:17:57.984Z,1022.56
2023-01-28T04:19:57.992Z,1022.57
2023-01-28T04:21:58.003Z,1022.59
2023-01-28T04:23:58.043Z,1022.59
2023-01-28T04:25:58.082Z,1022.63
2023-01-28T04:27:58.007Z,1022.63
2023-01-28T04:29:58.025Z,1022.67
2023-01-28T04:31:58.101Z,1022.72
2023-01-28T04:33:58.014Z,1022.72
2023-01-28T04:35:58.031Z,1022.69
2023-01-28T04:37:58.004Z,1022.79
2023-01-28T04:39:58.002Z,1022.79
2023-01-28T04:41:58.017Z,1022.79
2023-01-28T04:43:58.054Z,1022.84
2023-01-28T04:45:58.061Z,1022.88
2023-01-28T04:47:58.019Z,1022.88
2023-01-28T04:49:58.032Z,1022.88
2023-01-28T04:51:58.014Z,1022.88
2023-01-28T04:53:58.021Z,1022.95
2023-01-28T04:55:58.027Z,1022.96
2023-01-28T04:57:58.032Z,1022.97
2023-01-28T04:59:58.098Z,1022.98
2023-01-28T05:01:58.143Z,1022.98
2023-01-28T05:03:58.143Z,1023.00
2023-01-28T05:05:58.064Z,1023.03
2023-01-28T05:07:58.009Z,1023.03
2023-01-28T05:09:58.028Z,1023.03
2023-01-28T05:11:58.057Z,1023.03
2023-01-28T05:13:58.071Z,1023.10
2023-01-28T05:15:58.251Z,1023.08
2023-01-28T05:17:58.075Z,1023.06
2023-01-28T05:19:58.040Z,1023.06
2023-01-28T05:21:58.045Z,1023.10
2023-01-28T05:23:58.116Z,1023.10
2023-01-28T05:25:58.071Z,1023.07
2023-01-28T05:27:58.124Z,1023.09
2023-01-28T05:29:58.131Z,1023.09
2023-01-28T05:31:58.087Z,1023.13
2023-01-28T05:33:58.061Z,1023.12
2023-01-28T05:35:58.083Z,1023.12
2023-01-28T05:37:58.067Z,1023.12
2023-01-28T05:39:58.069Z,1023.14
2023-01-28T05:41:58.029Z,1023.11
2023-01-28T05:43:58.147Z,1023.10
2023-01-28T05:45:58.096Z,1023.04
2023-01-28T05:47:58.114Z,1023.04
2023-01-28T05:49:58.072Z,1023.04
2023-01-28T05:52:28.078Z,1023.10
2023-01-28T05:54:28.108Z,1023.07
2023-01-28T05:56:28.059Z,1023.08
2023-01-28T05:58:28.041Z,1023.13
2023-01-28T06:00:29.548Z,1023.11
2023-01-28T06:02:28.110Z,1023.11
2023-01-28T06:04:28.101Z,1023.15
2023-01-28T06:06:28.028Z,1023.15
2023-01-28T06:08:28.255Z,1023.24
2023-01-28T06:10:28.079Z,1023.24
2023-01-28T06:12:28.129Z,1023.23
2023-01-28T06:14:28.060Z,1023.22
2023-01-28T06:16:28.165Z,1023.27
2023-01-28T06:18:28.088Z,1023.31
2023-01-28T06:20:28.065Z,1023.31
2023-01-28T06:22:28.095Z,1023.36
2023-01-28T06:24:28.114Z,1023.40
2023-01-28T06:26:28.240Z,1023.41
2023-01-28T06:28:28.095Z,1023.41
2023-01-28T06:30:28.097Z,1023.41
2023-01-28T06:32:28.258Z,1023.58
2023-01-28T06:34:28.106Z,1023.59
2023-01-28T06:36:28.130Z,1023.61
2023-01-28T06:38:28.132Z,1023.61
2023-01-28T06:40:28.151Z,1023.67
2023-01-28T06:42:28.122Z,1023.71
2023-01-28T06:44:28.203Z,1023.76
2023-01-28T06:46:28.199Z,1023.78
2023-01-28T06:48:28.076Z,1023.78
2023-01-28T06:50:28.056Z,1023.73
2023-01-28T06:52:28.061Z,1023.76
2023-01-28T06:54:28.158Z,1023.80
2023-01-28T06:56:28.168Z,1023.84
2023-01-28T06:58:28.061Z,1023.84
2023-01-28T07:00:28.067Z,1023.91
2023-01-28T07:02:28.077Z,1023.93
2023-01-28T07:04:28.098Z,1023.94
2023-01-28T07:06:28.095Z,1023.94
2023-01-28T07:08:28.213Z,1023.94
2023-01-28T07:10:28.149Z,1023.94
2023-01-28T07:12:28.186Z,1024.01
2023-01-28T07:14:28.303Z,1023.99
2023-01-28T07:16:28.105Z,1023.99
2023-01-28T07:18:28.106Z,1024.02
2023-01-28T07:20:28.086Z,1024.05
2023-01-28T07:22:28.247Z,1024.06
2023-01-28T07:24:28.107Z,1024.06
2023-01-28T07:26:28.111Z,1024.06
2023-01-28T07:28:28.088Z,1024.08
2023-01-28T07:30:28.179Z,1024.13
2023-01-28T07:32:28.159Z,1024.09
2023-01-28T07:34:28.172Z,1024.10
2023-01-28T07:36:58.190Z,1024.10
2023-01-28T07:38:58.163Z,1024.11
2023-01-28T07:40:58.436Z,1024.10
2023-01-28T07:42:58.199Z,1024.13
2023-01-28T07:44:58.347Z,1024.13
2023-01-28T07:46:58.221Z,1024.18
2023-01-28T07:48:58.146Z,1024.17
2023-01-28T07:50:58.187Z,1024.17
2023-01-28T07:52:58.168Z,1024.24
2023-01-28T07:54:58.191Z,1024.24
2023-01-28T07:58:58.238Z,1024.29
2023-01-28T08:02:38.280Z,1024.35
2023-01-28T08:04:38.368Z,1024.35
2023-01-28T08:06:38.275Z,1024.35
2023-01-28T08:08:38.316Z,1024.33
2023-01-28T08:11:08.353Z,1024.31
2023-01-28T08:13:08.334Z,1024.31
2023-01-28T08:15:08.357Z,1024.40
2023-01-28T08:17:08.347Z,1024.40
2023-01-28T08:19:08.258Z,1024.46
2023-01-28T08:21:08.301Z,1024.46
2023-01-28T08:23:08.303Z,1024.45
2023-01-28T08:25:08.338Z,1024.44
2023-01-28T08:27:08.397Z,1024.44
2023-01-28T08:29:08.243Z,1024.47
2023-01-28T08:31:08.333Z,1024.47
2023-01-28T08:33:08.313Z,1024.56
2023-01-28T08:35:08.285Z,1024.53
2023-01-28T08:37:08.328Z,1024.53
2023-01-28T08:39:08.311Z,1024.62
2023-01-28T08:41:08.339Z,1024.58
2023-01-28T08:43:08.264Z,1024.61
2023-01-28T08:45:08.292Z,1024.61
2023-01-28T08:47:08.273Z,1024.59
2023-01-28T08:49:08.359Z,1024.56
2023-01-28T08:51:08.302Z,1024.65
2023-01-28T08:53:08.318Z,1024.66
2023-01-28T08:55:08.351Z,1024.66
2023-01-28T08:57:08.375Z,1024.65
2023-01-28T08:59:08.246Z,1024.67
2023-01-28T09:01:08.275Z,1024.67
2023-01-28T09:03:08.268Z,1024.66
2023-01-28T09:05:08.357Z,1024.66
2023-01-28T09:07:08.331Z,1024.68
2023-01-28T09:09:08.373Z,1024.69
2023-01-28T09:11:08.513Z,1024.69
2023-01-28T09:13:08.353Z,1024.69
2023-01-28T09:15:08.442Z,1024.70
2023-01-28T09:17:08.280Z,1024.72
2023-01-28T09:19:08.317Z,1024.75
2023-01-28T09:21:08.327Z,1024.75
2023-01-28T09:23:08.360Z,1024.75
2023-01-28T09:25:08.425Z,1024.79
2023-01-28T09:27:08.449Z,1024.84
2023-01-28T09:29:08.507Z,1024.86
2023-01-28T09:31:08.441Z,1024.86
2023-01-28T09:33:08.258Z,1024.86
2023-01-28T09:35:08.327Z,1024.83
2023-01-28T09:37:08.334Z,1024.84
2023-01-28T09:39:08.449Z,1024.85
2023-01-28T09:41:08.288Z,1024.85
2023-01-28T09:43:08.362Z,1024.93
2023-01-28T09:45:08.317Z,1024.96
2023-01-28T09:47:08.287Z,1025.01
2023-01-28T09:49:08.351Z,1024.98
2023-01-28T09:51:08.262Z,1024.98
2023-01-28T09:53:08.278Z,1024.98
2023-01-28T09:55:08.349Z,1025.05
2023-01-28T09:57:38.403Z,1025.08
2023-01-28T09:59:38.279Z,1025.10
2023-01-28T10:01:38.266Z,1025.10
2023-01-28T10:03:38.375Z,1025.12
2023-01-28T10:05:40.815Z,1025.09
2023-01-28T10:07:38.287Z,1025.06
2023-01-28T10:09:38.391Z,1025.06
2023-01-28T10:11:38.366Z,1025.04
2023-01-28T10:13:38.405Z,1025.02
2023-01-28T10:15:38.320Z,1025.05
2023-01-28T10:17:38.372Z,1025.05
2023-01-28T10:19:38.455Z,1025.05
2023-01-28T10:21:38.392Z,1025.01
2023-01-28T10:23:38.351Z,1025.02
2023-01-28T10:25:38.500Z,1025.01
2023-01-28T10:27:38.433Z,1025.00
2023-01-28T10:29:39.321Z,1025.00
2023-01-28T10:31:38.356Z,1024.95
2023-01-28T10:33:38.295Z,1024.95
2023-01-28T10:35:38.278Z,1024.92
2023-01-28T10:37:38.513Z,1024.86
2023-01-28T10:39:38.401Z,1024.86
2023-01-28T10:41:51.811Z,1024.86
2023-01-28T10:43:38.363Z,1024.92
2023-01-28T10:45:38.383Z,1024.92
2023-01-28T10:47:38.362Z,1024.92
2023-01-28T10:49:38.364Z,1024.94
2023-01-28T10:51:38.364Z,1024.90
2023-01-28T10:53:38.415Z,1024.88
2023-01-28T10:55:38.312Z,1024.92
2023-01-28T10:57:38.344Z,1024.92
2023-01-28T10:59:38.284Z,1024.88
2023-01-28T11:01:38.343Z,1024.84
2023-01-28T11:03:38.376Z,1024.90
2023-01-28T11:05:38.413Z,1024.88
2023-01-28T11:07:38.386Z,1024.88
2023-01-28T11:09:38.400Z,1024.84
2023-01-28T11:11:38.512Z,1024.83
2023-01-28T11:13:38.322Z,1024.83
2023-01-28T11:15:38.336Z,1024.83
2023-01-28T11:17:38.414Z,1024.91
2023-01-28T11:19:38.306Z,1024.95
2023-01-28T11:21:38.423Z,1024.92
2023-01-28T11:23:38.435Z,1024.89
2023-01-28T11:25:38.483Z,1024.89
2023-01-28T11:27:38.539Z,1024.91
2023-01-28T11:29:38.375Z,1024.95
2023-01-28T11:31:38.806Z,1024.97
2023-01-28T11:33:38.358Z,1024.97
2023-01-28T11:35:38.424Z,1024.97
2023-01-28T11:37:38.405Z,1024.98
2023-01-28T11:39:38.468Z,1025.04
2023-01-28T11:42:08.696Z,1025.01
2023-01-28T11:44:08.379Z,1024.99
2023-01-28T11:46:08.421Z,1024.98
2023-01-28T11:48:08.308Z,1024.98
2023-01-28T11:50:08.344Z,1025.05
2023-01-28T11:52:08.328Z,1025.00
2023-01-28T11:54:08.433Z,1025.00
2023-01-28T11:56:08.458Z,1024.94
2023-01-28T11:58:08.470Z,1024.94
2023-01-28T12:00:08.358Z,1024.98
2023-01-28T12:02:08.328Z,1024.93
2023-01-28T12:04:08.383Z,1024.85
2023-01-28T12:06:08.425Z,1024.88
2023-01-28T12:08:08.425Z,1024.88
2023-01-28T12:10:08.469Z,1024.88
2023-01-28T12:12:08.468Z,1024.74
2023-01-28T12:14:08.354Z,1024.76
2023-01-28T12:16:08.502Z,1024.76
2023-01-28T12:18:08.373Z,1024.86
2023-01-28T12:20:08.444Z,1024.82
2023-01-28T12:22:08.380Z,1024.78
2023-01-28T12:24:10.304Z,1024.78
2023-01-28T12:26:08.515Z,1024.78
2023-01-28T12:28:08.353Z,1024.85
2023-01-28T12:30:08.389Z,1024.76
2023-01-28T12:32:08.439Z,1024.79
2023-01-28T12:34:08.511Z,1024.79
2023-01-28T12:36:08.410Z,1024.79
2023-01-28T12:38:08.467Z,1024.74
2023-01-28T12:40:08.488Z,1024.71
2023-01-28T12:42:08.379Z,1024.74
2023-01-28T12:44:08.355Z,1024.74
2023-01-28T12:46:08.508Z,1024.75
2023-01-28T12:48:08.510Z,1024.77
2023-01-28T12:50:08.582Z,1024.77
2023-01-28T12:52:09.364Z,1024.77
2023-01-28T12:54:10.401Z,1024.77
2023-01-28T12:56:09.421Z,1024.75
2023-01-28T12:58:09.375Z,1024.75
2023-01-28T13:00:08.423Z,1024.78
2023-01-28T13:02:08.437Z,1024.78
2023-01-28T13:04:08.416Z,1024.78
2023-01-28T13:06:08.439Z,1024.78
2023-01-28T13:08:08.476Z,1024.79
2023-01-28T13:10:08.467Z,1024.76
2023-01-28T13:12:08.439Z,1024.76
2023-01-28T13:14:08.464Z,1024.77
2023-01-28T13:16:08.428Z,1024.77
2023-01-28T13:18:08.445Z,1024.85
2023-01-28T13:20:08.430Z,1024.80
2023-01-28T13:22:08.367Z,1024.80
2023-01-28T13:24:08.610Z,1024.85
2023-01-28T13:26:08.546Z,1024.84
2023-01-28T13:28:38.400Z,1024.84
2023-01-28T13:30:38.503Z,1024.82
2023-01-28T13:32:38.523Z,1024.82
2023-01-28T13:34:38.438Z,1024.89
2023-01-28T13:36:38.476Z,1024.89
2023-01-28T13:38:39.523Z,1024.81
2023-01-28T13:40:38.467Z,1024.85
2023-01-28T13:42:38.414Z,1024.85
2023-01-28T13:44:38.369Z,1024.74
2023-01-28T13:46:38.497Z,1024.78
2023-01-28T13:48:38.560Z,1024.76
2023-01-28T13:50:38.480Z,1024.76
2023-01-28T13:52:38.386Z,1024.79
2023-01-28T13:54:38.484Z,1024.78
2023-01-28T13:56:38.504Z,1024.78
2023-01-28T13:58:38.503Z,1024.89
2023-01-28T14:00:38.407Z,1024.89
2023-01-28T14:02:38.494Z,1024.82
2023-01-28T14:04:38.588Z,1024.84
2023-01-28T14:06:38.465Z,1024.84
2023-01-28T14:08:38.403Z,1024.84
2023-01-28T14:10:38.428Z,1024.84
2023-01-28T14:12:38.476Z,1024.87
2023-01-28T14:14:38.450Z,1024.92
2023-01-28T14:16:38.541Z,1024.97
2023-01-28T14:18:38.603Z,1024.97
2023-01-28T14:20:39.501Z,1025.02
2023-01-28T14:22:38.631Z,1025.03
2023-01-28T14:24:38.515Z,1025.18
2023-01-28T14:26:38.543Z,1025.22
2023-01-28T14:28:38.472Z,1025.22
2023-01-28T14:30:38.450Z,1025.22
2023-01-28T14:32:38.453Z,1025.24
2023-01-28T14:34:38.395Z,1025.22
2023-01-28T14:36:38.502Z,1025.22
2023-01-28T14:38:38.602Z,1025.22
2023-01-28T14:40:38.487Z,1025.25
2023-01-28T14:42:38.514Z,1025.25
2023-01-28T14:44:38.484Z,1025.35
2023-01-28T14:46:38.475Z,1025.35
2023-01-28T14:48:38.517Z,1025.39
2023-01-28T14:52:38.515Z,1025.39
2023-01-28T14:54:38.620Z,1025.42
2023-01-28T14:56:38.546Z,1025.42
2023-01-28T14:58:38.491Z,1025.50
2023-01-28T15:00:38.549Z,1025.51
2023-01-28T15:02:38.568Z,1025.51
2023-01-28T15:04:46.281Z,1025.52
2023-01-28T15:06:46.319Z,1025.52
2023-01-28T15:08:46.205Z,1025.56
2023-01-28T15:10:46.226Z,1025.56
2023-01-28T15:12:46.252Z,1025.61
2023-01-28T15:14:48.079Z,1025.61
2023-01-28T15:16:46.340Z,1025.61
2023-01-28T15:18:46.313Z,1025.61
2023-01-28T15:20:46.301Z,1025.66
2023-01-28T15:22:46.321Z,1025.66
2023-01-28T15:24:46.235Z,1025.66
2023-01-28T15:26:46.417Z,1025.63
2023-01-28T15:28:46.264Z,1025.66
2023-01-28T15:30:46.345Z,1025.69
2023-01-28T15:32:46.265Z,1025.73
2023-01-28T15:34:46.319Z,1025.73
2023-01-28T15:36:46.203Z,1025.77
2023-01-28T15:38:46.197Z,1025.82
2023-01-28T15:40:46.455Z,1025.88
2023-01-28T15:43:16.229Z,1025.88
2023-01-28T15:45:16.615Z,1025.94
2023-01-28T15:47:16.353Z,1025.94
2023-01-28T15:49:16.331Z,1025.97
2023-01-28T15:51:16.264Z,1025.98
2023-01-28T15:53:16.225Z,1026.04
2023-01-28T15:55:19.018Z,1026.07
2023-01-28T15:57:16.174Z,1026.07
2023-01-28T15:59:16.263Z,1026.07
2023-01-28T16:01:16.343Z,1026.06
2023-01-28T16:03:16.341Z,1026.08
2023-01-28T16:05:16.659Z,1026.10
2023-01-28T16:07:16.234Z,1026.10
2023-01-28T16:09:16.220Z,1026.11
2023-01-28T16:11:16.241Z,1026.09
2023-01-28T16:13:16.274Z,1026.09
2023-01-28T16:15:18.423Z,1026.09
2023-01-28T16:17:16.276Z,1026.16
2023-01-28T16:19:16.461Z,1026.12
2023-01-28T16:21:16.323Z,1026.16
2023-01-28T16:23:16.258Z,1026.16
2023-01-28T16:25:16.634Z,1026.16
2023-01-28T16:27:16.272Z,1026.23
2023-01-28T16:29:16.247Z,1026.21
2023-01-28T16:31:16.396Z,1026.28
2023-01-28T16:33:16.338Z,1026.28
2023-01-28T16:35:16.641Z,1026.28
2023-01-28T16:37:16.301Z,1026.39
2023-01-28T16:39:16.297Z,1026.39
2023-01-28T16:41:16.261Z,1026.46
2023-01-28T16:43:16.299Z,1026.47
2023-01-28T16:45:16.648Z,1026.47
2023-01-28T16:47:16.315Z,1026.46
2023-01-28T16:49:16.324Z,1026.41
2023-01-28T16:51:16.473Z,1026.41
2023-01-28T16:53:16.562Z,1026.41
2023-01-28T16:55:16.903Z,1026.45
2023-01-28T16:57:16.505Z,1026.42
2023-01-28T16:59:16.623Z,1026.43
2023-01-28T17:01:16.550Z,1026.43
2023-01-28T17:03:17.503Z,1026.43
2023-01-28T17:05:17.379Z,1026.47
2023-01-28T17:07:16.498Z,1026.44
2023-01-28T17:09:16.661Z,1026.49
2023-01-28T17:11:16.444Z,1026.51
2023-01-28T17:13:16.476Z,1026.51
2023-01-28T17:15:16.920Z,1026.50
2023-01-28T17:17:16.540Z,1026.44
2023-01-28T17:19:16.614Z,1026.44
2023-01-28T17:21:16.350Z,1026.44
2023-01-28T17:23:16.497Z,1026.46
2023-01-28T17:25:16.832Z,1026.45
2023-01-28T17:27:46.653Z,1026.42
2023-01-28T17:29:46.360Z,1026.38
2023-01-28T17:31:46.392Z,1026.38
2023-01-28T17:33:46.345Z,1026.41
2023-01-28T17:35:46.247Z,1026.40
2023-01-28T17:37:46.322Z,1026.36
2023-01-28T17:39:46.386Z,1026.38
2023-01-28T17:41:46.317Z,1026.38
2023-01-28T17:43:46.342Z,1026.44
2023-01-28T17:45:46.369Z,1026.52
2023-01-28T17:47:46.376Z,1026.57
2023-01-28T17:49:46.393Z,1026.57
2023-01-28T17:51:46.265Z,1026.56
2023-01-28T17:53:46.295Z,1026.64
2023-01-28T17:55:46.311Z,1026.63
2023-01-28T17:57:46.382Z,1026.62
2023-01-28T17:59:46.364Z,1026.62
2023-01-28T18:01:46.381Z,1026.62
2023-01-28T18:03:46.300Z,1026.65
2023-01-28T18:05:46.341Z,1026.63
2023-01-28T18:07:46.407Z,1026.66
2023-01-28T18:09:46.293Z,1026.66
2023-01-28T18:11:46.397Z,1026.69
2023-01-28T18:13:46.328Z,1026.69
2023-01-28T18:15:46.416Z,1026.75
2023-01-28T18:17:46.499Z,1026.75
2023-01-28T18:19:46.425Z,1026.77
2023-01-28T18:21:53.074Z,1026.77
2023-01-28T18:23:46.339Z,1026.80
2023-01-28T18:25:46.346Z,1026.76
2023-01-28T18:27:46.351Z,1026.76
2023-01-28T18:29:46.340Z,1026.73
2023-01-28T18:31:46.527Z,1026.80
2023-01-28T18:33:46.420Z,1026.80
2023-01-28T18:35:46.416Z,1026.79
2023-01-28T18:37:46.362Z,1026.79
2023-01-28T18:39:46.365Z,1026.75
2023-01-28T18:41:46.633Z,1026.75
2023-01-28T18:43:46.377Z,1026.67
2023-01-28T18:45:46.353Z,1026.67
2023-01-28T18:47:46.384Z,1026.67
2023-01-28T18:49:46.540Z,1026.62
2023-01-28T18:51:46.667Z,1026.65
2023-01-28T18:53:46.325Z,1026.65
2023-01-28T18:55:46.887Z,1026.65
2023-01-28T18:57:46.382Z,1026.65
2023-01-28T18:59:46.397Z,1026.59
2023-01-28T19:01:46.384Z,1026.71
2023-01-28T19:03:46.533Z,1026.76
2023-01-28T19:05:46.433Z,1026.76
2023-01-28T19:07:46.336Z,1026.75
2023-01-28T19:09:46.319Z,1026.74
2023-01-28T19:11:46.342Z,1026.69
2023-01-28T19:14:16.359Z,1026.77
2023-01-28T19:16:16.405Z,1026.76
2023-01-28T19:18:16.406Z,1026.76
2023-01-28T19:20:16.411Z,1026.83
2023-01-28T19:22:16.283Z,1026.83
2023-01-28T19:24:16.385Z,1027.01
2023-01-28T19:26:16.374Z,1027.03
2023-01-28T19:28:16.372Z,1027.03
2023-01-28T19:30:16.424Z,1027.05
2023-01-28T19:32:16.389Z,1027.02
2023-01-28T19:34:16.308Z,1027.01
2023-01-28T19:36:16.494Z,1027.03
2023-01-28T19:38:16.372Z,1027.03
2023-01-28T19:40:16.327Z,1027.01
2023-01-28T19:42:16.337Z,1027.02
2023-01-28T19:44:16.387Z,1027.05
2023-01-28T19:46:16.440Z,1027.07
2023-01-28T19:48:16.503Z,1027.07
2023-01-28T19:50:16.316Z,1027.09
2023-01-28T19:52:16.377Z,1027.13
2023-01-28T19:54:16.363Z,1027.16
2023-01-28T19:56:16.394Z,1027.16
2023-01-28T19:58:16.411Z,1027.19
2023-01-28T20:00:16.385Z,1027.18
2023-01-28T20:02:16.450Z,1027.18
2023-01-28T20:04:16.419Z,1027.18
2023-01-28T20:06:16.408Z,1027.18
2023-01-28T20:08:16.368Z,1027.13
2023-01-28T20:10:16.409Z,1027.17
2023-01-28T20:12:16.405Z,1027.32
2023-01-28T20:14:16.411Z,1027.32
2023-01-28T20:16:16.635Z,1027.32
2023-01-28T20:18:16.547Z,1027.32
2023-01-28T20:20:16.557Z,1027.32
2023-01-28T20:22:16.492Z,1027.28
2023-01-28T20:24:16.519Z,1027.28
2023-01-28T20:26:16.679Z,1027.28
2023-01-28T20:28:16.678Z,1027.28
2023-01-28T20:30:16.443Z,1027.25
2023-01-28T20:32:19.903Z,1027.28
2023-01-28T20:34:16.489Z,1027.28
2023-01-28T20:36:16.472Z,1027.34
2023-01-28T20:38:16.516Z,1027.40
2023-01-28T20:40:16.379Z,1027.43
2023-01-28T20:42:16.440Z,1027.43
2023-01-28T20:44:16.406Z,1027.43
2023-01-28T20:46:16.439Z,1027.47
2023-01-28T20:48:16.433Z,1027.48
2023-01-28T20:50:16.789Z,1027.53
2023-01-28T20:52:16.379Z,1027.53
2023-01-28T20:54:16.473Z,1027.53
2023-01-28T20:56:16.392Z,1027.56
2023-01-28T20:58:16.437Z,1027.63
2023-01-28T21:00:46.416Z,1027.70
2023-01-28T21:02:46.445Z,1027.70
2023-01-28T21:04:46.520Z,1027.83
2023-01-28T21:06:46.391Z,1027.85
2023-01-28T21:08:46.384Z,1027.91
2023-01-28T21:10:46.404Z,1027.91
2023-01-28T21:12:46.438Z,1027.91
2023-01-28T21:14:46.438Z,1027.96
2023-01-28T21:16:46.442Z,1027.91
2023-01-28T21:18:46.483Z,1027.99
2023-01-28T21:20:46.495Z,1027.99
2023-01-28T21:22:46.437Z,1027.97
2023-01-28T21:24:46.431Z,1027.97
2023-01-28T21:26:46.479Z,1027.88
2023-01-28T21:28:46.504Z,1027.86
2023-01-28T21:30:46.498Z,1027.86
2023-01-28T21:32:46.657Z,1027.85
2023-01-28T21:34:46.469Z,1027.78
2023-01-28T21:36:46.462Z,1027.76
2023-01-28T21:38:46.515Z,1027.76
2023-01-28T21:40:46.475Z,1027.76
2023-01-28T21:42:46.530Z,1027.80
2023-01-28T21:44:46.459Z,1027.79
2023-01-28T21:46:46.526Z,1027.69
2023-01-28T21:48:46.448Z,1027.70
2023-01-28T21:50:46.446Z,1027.70
2023-01-28T21:52:46.521Z,1027.70
2023-01-28T21:54:46.512Z,1027.64
2023-01-28T21:56:46.463Z,1027.66
2023-01-28T21:58:46.483Z,1027.66
2023-01-28T22:00:46.468Z,1027.59
2023-01-28T22:02:46.505Z,1027.61
2023-01-28T22:04:46.461Z,1027.61
2023-01-28T22:06:46.441Z,1027.73
2023-01-28T22:08:46.563Z,1027.73
2023-01-28T22:10:46.806Z,1027.81
2023-01-28T22:14:54.706Z,1027.82
2023-01-28T22:16:54.691Z,1027.76
2023-01-28T22:18:54.752Z,1027.76
2023-01-28T22:20:54.686Z,1027.81
2023-01-28T22:22:54.716Z,1027.78
2023-01-28T22:24:54.745Z,1027.77
2023-01-28T22:26:54.721Z,1027.77
2023-01-28T22:28:54.779Z,1027.76
2023-01-28T22:30:54.820Z,1027.74
2023-01-28T22:32:54.668Z,1027.84
2023-01-28T22:34:54.708Z,1027.92
2023-01-28T22:36:54.733Z,1027.92
2023-01-28T22:38:54.697Z,1028.02
2023-01-28T22:40:54.735Z,1028.07
2023-01-28T22:42:54.731Z,1027.98
2023-01-28T22:44:54.681Z,1027.98
2023-01-28T22:46:54.706Z,1027.98
2023-01-28T22:48:54.659Z,1027.91
2023-01-28T22:50:54.686Z,1027.84
2023-01-28T22:52:54.773Z,1027.76
2023-01-28T22:54:54.766Z,1027.76
2023-01-28T22:56:54.739Z,1027.65
2023-01-28T22:58:54.765Z,1027.63
2023-01-28T23:00:54.664Z,1027.70
2023-01-28T23:02:54.748Z,1027.70
2023-01-28T23:04:54.733Z,1027.70
2023-01-28T23:06:54.756Z,1027.70
2023-01-28T23:08:54.748Z,1027.69
2023-01-28T23:10:54.769Z,1027.69
2023-01-28T23:12:54.668Z,1027.68
2023-01-28T23:15:24.672Z,1027.74
2023-01-28T23:17:24.712Z,1027.73
2023-01-28T23:19:24.644Z,1027.73
2023-01-28T23:21:24.652Z,1027.63
2023-01-28T23:23:24.757Z,1027.71
2023-01-28T23:25:24.799Z,1027.71
2023-01-28T23:27:24.780Z,1027.71
2023-01-28T23:29:24.679Z,1027.83
2023-01-28T23:31:24.730Z,1027.95
2023-01-28T23:33:24.715Z,1027.86
2023-01-28T23:35:24.741Z,1027.79
2023-01-28T23:37:24.751Z,1027.79
2023-01-28T23:39:24.742Z,1027.77
2023-01-28T23:41:24.780Z,1027.67
2023-01-28T23:43:24.662Z,1027.66
2023-01-28T23:45:24.677Z,1027.70
2023-01-28T23:47:24.696Z,1027.70
2023-01-28T23:49:24.729Z,1027.75
2023-01-28T23:51:24.661Z,1027.79
2023-01-28T23:53:24.647Z,1027.74
2023-01-28T23:55:24.769Z,1027.74
2023-01-28T23:57:24.700Z,1027.65
2023-01-28T23:59:24.797Z,1027.67
